sensor_id;sensor_type;location;lat;lon;timestamp;pressure;altitude;pressure_sealevel;temperature;humidity
45731;BME280;31440;48.584;13.460;2023-05-07T00:02:35;96810.75;;;12.27;100.00
45731;BME280;31440;48.584;13.460;2023-05-07T00:05:40;96814.59;;;12.39;100.00
45731;BME280;31440;48.584;13.460;2023-05-07T00:08:45;96818.75;;;12.23;100.00
45731;BME280;31440;48.584;13.460;2023-05-07T00:11:50;96822.47;;;13.15;100.00
45731;BME280;31440;48.584;13.460;2023-05-07T00:18:01;96814.97;;;12.70;100.00
45731;BME280;31440;48.584;13.460;2023-05-07T00:21:06;96809.88;;;12.27;100.00
45731;BME280;31440;48.584;13.460;2023-05-07T00:24:10;96815.28;;;12.63;100.00
45731;BME280;31440;48.584;13.460;2023-05-07T00:30:21;96813.47;;;13.22;100.00
45731;BME280;31440;48.584;13.460;2023-05-07T00:33:26;96817.44;;;12.73;100.00
45731;BME280;31440;48.584;13.460;2023-05-07T00:36:31;96821.69;;;12.76;100.00
45731;BME280;31440;48.584;13.460;2023-05-07T00:39:35;96818.81;;;13.01;100.00
45731;BME280;31440;48.584;13.460;2023-05-07T00:42:40;96819.66;;;12.62;100.00
45731;BME280;31440;48.584;13.460;2023-05-07T00:48:51;96823.25;;;12.60;100.00
45731;BME280;31440;48.584;13.460;2023-05-07T00:51:56;96839.06;;;12.13;100.00
45731;BME280;31440;48.584;13.460;2023-05-07T00:55:05;96839.19;;;11.90;100.00
45731;BME280;31440;48.584;13.460;2023-05-07T01:01:15;96833.34;;;12.05;100.00
45731;BME280;31440;48.584;13.460;2023-05-07T01:04:21;96832.41;;;12.28;100.00
45731;BME280;31440;48.584;13.460;2023-05-07T01:07:26;96839.47;;;11.60;100.00
45731;BME280;31440;48.584;13.460;2023-05-07T01:10:32;96837.75;;;12.25;100.00
45731;BME280;31440;48.584;13.460;2023-05-07T01:13:36;96839.69;;;11.76;100.00
45731;BME280;31440;48.584;13.460;2023-05-07T01:16:42;96840.25;;;12.06;100.00
45731;BME280;31440;48.584;13.460;2023-05-07T01:19:47;96840.88;;;12.33;100.00
45731;BME280;31440;48.584;13.460;2023-05-07T01:22:54;96836.75;;;12.07;100.00
45731;BME280;31440;48.584;13.460;2023-05-07T01:25:59;96835.06;;;12.26;100.00
45731;BME280;31440;48.584;13.460;2023-05-07T01:32:13;96846.09;;;12.11;100.00
45731;BME280;31440;48.584;13.460;2023-05-07T01:35:21;96840.56;;;12.20;100.00
45731;BME280;31440;48.584;13.460;2023-05-07T01:38:27;96845.88;;;11.73;100.00
45731;BME280;31440;48.584;13.460;2023-05-07T01:41:32;96838.06;;;11.73;100.00
45731;BME280;31440;48.584;13.460;2023-05-07T01:44:37;96838.38;;;11.66;100.00
45731;BME280;31440;48.584;13.460;2023-05-07T01:47:42;96837.72;;;11.82;100.00
45731;BME280;31440;48.584;13.460;2023-05-07T01:50:47;96842.22;;;11.34;100.00
45731;BME280;31440;48.584;13.460;2023-05-07T01:53:52;96833.59;;;11.55;100.00
45731;BME280;31440;48.584;13.460;2023-05-07T01:56:57;96843.78;;;11.38;100.00
45731;BME280;31440;48.584;13.460;2023-05-07T02:00:02;96840.47;;;12.00;100.00
45731;BME280;31440;48.584;13.460;2023-05-07T02:03:18;96837.78;;;11.81;100.00
45731;BME280;31440;48.584;13.460;2023-05-07T02:06:32;96836.19;;;11.77;100.00
45731;BME280;31440;48.584;13.460;2023-05-07T02:09:41;96846.28;;;10.94;100.00
45731;BME280;31440;48.584;13.460;2023-05-07T02:12:46;96843.50;;;11.22;100.00
45731;BME280;31440;48.584;13.460;2023-05-07T02:15:50;96841.63;;;11.49;100.00
45731;BME280;31440;48.584;13.460;2023-05-07T02:18:55;96839.06;;;11.26;100.00
45731;BME280;31440;48.584;13.460;2023-05-07T02:22:00;96842.88;;;11.39;100.00
45731;BME280;31440;48.584;13.460;2023-05-07T02:25:07;96831.84;;;11.34;100.00
45731;BME280;31440;48.584;13.460;2023-05-07T02:28:12;96830.78;;;11.16;100.00
45731;BME280;31440;48.584;13.460;2023-05-07T02:31:26;96824.75;;;11.37;100.00
45731;BME280;31440;48.584;13.460;2023-05-07T02:34:31;96828.97;;;11.40;100.00
45731;BME280;31440;48.584;13.460;2023-05-07T02:37:38;96785.69;;;11.39;100.00
45731;BME280;31440;48.584;13.460;2023-05-07T02:40:43;96821.94;;;11.20;100.00
45731;BME280;31440;48.584;13.460;2023-05-07T02:43:48;96824.88;;;11.11;100.00
45731;BME280;31440;48.584;13.460;2023-05-07T02:46:53;96822.44;;;11.30;100.00
45731;BME280;31440;48.584;13.460;2023-05-07T02:49:58;96824.09;;;11.54;100.00
45731;BME280;31440;48.584;13.460;2023-05-07T02:53:02;96831.53;;;11.63;100.00
45731;BME280;31440;48.584;13.460;2023-05-07T02:56:07;96822.63;;;11.25;100.00
45731;BME280;31440;48.584;13.460;2023-05-07T02:59:12;96827.47;;;11.34;100.00
45731;BME280;31440;48.584;13.460;2023-05-07T03:02:18;96833.47;;;11.13;100.00
45731;BME280;31440;48.584;13.460;2023-05-07T03:05:23;96831.41;;;10.99;100.00
45731;BME280;31440;48.584;13.460;2023-05-07T03:08:28;96836.06;;;11.58;100.00
45731;BME280;31440;48.584;13.460;2023-05-07T03:11:32;96837.13;;;11.07;100.00
45731;BME280;31440;48.584;13.460;2023-05-07T03:14:37;96845.81;;;10.83;100.00
45731;BME280;31440;48.584;13.460;2023-05-07T03:17:41;96830.03;;;11.12;100.00
45731;BME280;31440;48.584;13.460;2023-05-07T03:20:48;96840.28;;;10.67;100.00
45731;BME280;31440;48.584;13.460;2023-05-07T03:27:00;96831.59;;;10.93;100.00
45731;BME280;31440;48.584;13.460;2023-05-07T03:30:06;96829.03;;;11.16;100.00
45731;BME280;31440;48.584;13.460;2023-05-07T03:33:12;96815.25;;;11.14;100.00
45731;BME280;31440;48.584;13.460;2023-05-07T03:39:24;96832.63;;;10.89;100.00
45731;BME280;31440;48.584;13.460;2023-05-07T03:42:29;96833.44;;;11.14;100.00
45731;BME280;31440;48.584;13.460;2023-05-07T03:45:33;96833.31;;;10.94;100.00
45731;BME280;31440;48.584;13.460;2023-05-07T03:48:47;96839.09;;;10.77;100.00
45731;BME280;31440;48.584;13.460;2023-05-07T03:51:53;96797.63;;;10.74;100.00
45731;BME280;31440;48.584;13.460;2023-05-07T03:54:57;96833.41;;;10.91;100.00
45731;BME280;31440;48.584;13.460;2023-05-07T03:58:03;96829.63;;;11.23;100.00
45731;BME280;31440;48.584;13.460;2023-05-07T04:01:07;96827.38;;;11.14;100.00
45731;BME280;31440;48.584;13.460;2023-05-07T04:04:12;96823.97;;;11.35;100.00
45731;BME280;31440;48.584;13.460;2023-05-07T04:07:17;96793.59;;;11.14;100.00
45731;BME280;31440;48.584;13.460;2023-05-07T04:10:26;96836.44;;;11.02;100.00
45731;BME280;31440;48.584;13.460;2023-05-07T04:13:34;96833.97;;;11.23;100.00
45731;BME280;31440;48.584;13.460;2023-05-07T04:16:40;96834.44;;;11.34;100.00
45731;BME280;31440;48.584;13.460;2023-05-07T04:19:45;96831.59;;;11.62;100.00
45731;BME280;31440;48.584;13.460;2023-05-07T04:22:52;96835.22;;;11.79;100.00
45731;BME280;31440;48.584;13.460;2023-05-07T04:25:56;96837.16;;;11.96;100.00
45731;BME280;31440;48.584;13.460;2023-05-07T04:29:08;96843.66;;;11.86;100.00
45731;BME280;31440;48.584;13.460;2023-05-07T04:32:13;96848.13;;;11.82;100.00
45731;BME280;31440;48.584;13.460;2023-05-07T04:35:19;96858.91;;;12.37;100.00
45731;BME280;31440;48.584;13.460;2023-05-07T04:41:31;96861.00;;;12.70;100.00
45731;BME280;31440;48.584;13.460;2023-05-07T04:44:35;96864.19;;;12.97;100.00
45731;BME280;31440;48.584;13.460;2023-05-07T04:47:41;96868.00;;;13.08;100.00
45731;BME280;31440;48.584;13.460;2023-05-07T04:53:52;96871.31;;;13.12;100.00
45731;BME280;31440;48.584;13.460;2023-05-07T04:56:57;96849.50;;;13.14;100.00
45731;BME280;31440;48.584;13.460;2023-05-07T05:00:02;96870.88;;;13.02;100.00
45731;BME280;31440;48.584;13.460;2023-05-07T05:03:11;96874.69;;;12.75;100.00
45731;BME280;31440;48.584;13.460;2023-05-07T05:06:16;96873.66;;;12.59;100.00
45731;BME280;31440;48.584;13.460;2023-05-07T05:09:21;96854.88;;;12.50;100.00
45731;BME280;31440;48.584;13.460;2023-05-07T05:12:26;96878.56;;;12.44;100.00
45731;BME280;31440;48.584;13.460;2023-05-07T05:18:38;96880.13;;;12.89;100.00
45731;BME280;31440;48.584;13.460;2023-05-07T05:21:43;96876.78;;;13.06;100.00
45731;BME280;31440;48.584;13.460;2023-05-07T05:24:49;96887.75;;;13.14;100.00
45731;BME280;31440;48.584;13.460;2023-05-07T05:27:54;96875.19;;;13.22;100.00
45731;BME280;31440;48.584;13.460;2023-05-07T05:30:59;96879.88;;;13.53;100.00
45731;BME280;31440;48.584;13.460;2023-05-07T05:34:07;96877.16;;;13.56;100.00
45731;BME280;31440;48.584;13.460;2023-05-07T05:37:13;96880.31;;;13.63;100.00
45731;BME280;31440;48.584;13.460;2023-05-07T05:40:18;96882.09;;;13.62;100.00
45731;BME280;31440;48.584;13.460;2023-05-07T05:43:23;96883.50;;;13.50;100.00
45731;BME280;31440;48.584;13.460;2023-05-07T05:46:27;96880.63;;;13.36;100.00
45731;BME280;31440;48.584;13.460;2023-05-07T05:49:34;96853.16;;;13.85;100.00
45731;BME280;31440;48.584;13.460;2023-05-07T05:52:41;96892.91;;;13.90;100.00
45731;BME280;31440;48.584;13.460;2023-05-07T05:55:47;96893.31;;;14.36;100.00
45731;BME280;31440;48.584;13.460;2023-05-07T05:58:51;96887.16;;;14.56;100.00
45731;BME280;31440;48.584;13.460;2023-05-07T06:01:56;96884.97;;;14.11;100.00
45731;BME280;31440;48.584;13.460;2023-05-07T06:05:01;96871.81;;;14.31;100.00
45731;BME280;31440;48.584;13.460;2023-05-07T06:08:07;96866.50;;;14.15;100.00
45731;BME280;31440;48.584;13.460;2023-05-07T06:11:12;96893.38;;;14.71;100.00
45731;BME280;31440;48.584;13.460;2023-05-07T06:14:19;96897.66;;;14.54;100.00
45731;BME280;31440;48.584;13.460;2023-05-07T06:17:23;96896.59;;;14.76;100.00
45731;BME280;31440;48.584;13.460;2023-05-07T06:20:28;96892.91;;;14.62;100.00
45731;BME280;31440;48.584;13.460;2023-05-07T06:23:35;96895.13;;;14.70;100.00
45731;BME280;31440;48.584;13.460;2023-05-07T06:26:40;96901.09;;;15.40;100.00
45731;BME280;31440;48.584;13.460;2023-05-07T06:29:47;96895.03;;;15.39;100.00
45731;BME280;31440;48.584;13.460;2023-05-07T06:32:54;96902.69;;;15.75;100.00
45731;BME280;31440;48.584;13.460;2023-05-07T06:35:59;96900.78;;;15.46;100.00
45731;BME280;31440;48.584;13.460;2023-05-07T06:39:04;96892.28;;;16.21;100.00
45731;BME280;31440;48.584;13.460;2023-05-07T06:42:09;96896.66;;;15.57;100.00
45731;BME280;31440;48.584;13.460;2023-05-07T06:45:19;96892.22;;;16.07;100.00
45731;BME280;31440;48.584;13.460;2023-05-07T06:48:24;96889.97;;;16.00;100.00
45731;BME280;31440;48.584;13.460;2023-05-07T06:51:36;96885.31;;;16.51;100.00
45731;BME280;31440;48.584;13.460;2023-05-07T06:54:41;96889.22;;;16.74;100.00
45731;BME280;31440;48.584;13.460;2023-05-07T06:57:46;96888.84;;;17.24;100.00
45731;BME280;31440;48.584;13.460;2023-05-07T07:00:52;96898.03;;;17.31;100.00
45731;BME280;31440;48.584;13.460;2023-05-07T07:03:57;96909.34;;;17.18;100.00
45731;BME280;31440;48.584;13.460;2023-05-07T07:07:01;96899.88;;;17.15;100.00
45731;BME280;31440;48.584;13.460;2023-05-07T07:10:06;96900.91;;;17.13;100.00
45731;BME280;31440;48.584;13.460;2023-05-07T07:13:11;96886.59;;;17.47;100.00
45731;BME280;31440;48.584;13.460;2023-05-07T07:16:18;96872.22;;;16.95;100.00
45731;BME280;31440;48.584;13.460;2023-05-07T07:19:23;96893.41;;;17.92;100.00
45731;BME280;31440;48.584;13.460;2023-05-07T07:22:31;96900.72;;;18.28;95.33
45731;BME280;31440;48.584;13.460;2023-05-07T07:25:35;96893.22;;;18.22;98.21
45731;BME280;31440;48.584;13.460;2023-05-07T07:28:44;96897.59;;;18.62;91.23
45731;BME280;31440;48.584;13.460;2023-05-07T07:31:53;96891.97;;;18.81;90.18
45731;BME280;31440;48.584;13.460;2023-05-07T07:34:58;96893.38;;;18.99;88.20
45731;BME280;31440;48.584;13.460;2023-05-07T07:38:06;96874.41;;;18.94;91.74
45731;BME280;31440;48.584;13.460;2023-05-07T07:41:11;96906.88;;;19.45;86.83
45731;BME280;31440;48.584;13.460;2023-05-07T07:44:15;96898.31;;;19.67;88.58
45731;BME280;31440;48.584;13.460;2023-05-07T07:47:25;96891.84;;;19.84;84.31
45731;BME280;31440;48.584;13.460;2023-05-07T07:50:30;96891.56;;;19.63;80.48
45731;BME280;31440;48.584;13.460;2023-05-07T07:53:49;96895.41;;;20.56;82.16
45731;BME280;31440;48.584;13.460;2023-05-07T07:56:55;96896.50;;;20.17;74.30
45731;BME280;31440;48.584;13.460;2023-05-07T08:00:00;96898.78;;;20.34;79.87
45731;BME280;31440;48.584;13.460;2023-05-07T08:03:09;96888.97;;;20.71;78.42
45731;BME280;31440;48.584;13.460;2023-05-07T08:06:18;96869.66;;;20.60;77.53
45731;BME280;31440;48.584;13.460;2023-05-07T08:09:23;96890.72;;;20.48;77.19
45731;BME280;31440;48.584;13.460;2023-05-07T08:12:29;96883.38;;;20.76;75.38
45731;BME280;31440;48.584;13.460;2023-05-07T08:15:33;96889.38;;;21.24;67.22
45731;BME280;31440;48.584;13.460;2023-05-07T08:18:38;96875.63;;;21.65;71.24
45731;BME280;31440;48.584;13.460;2023-05-07T08:21:43;96892.38;;;21.08;70.84
45731;BME280;31440;48.584;13.460;2023-05-07T08:24:49;96895.44;;;22.04;66.11
45731;BME280;31440;48.584;13.460;2023-05-07T08:27:53;96889.78;;;22.09;68.65
45731;BME280;31440;48.584;13.460;2023-05-07T08:30:58;96892.53;;;22.50;65.18
45731;BME280;31440;48.584;13.460;2023-05-07T08:34:09;96898.69;;;21.74;68.23
45731;BME280;31440;48.584;13.460;2023-05-07T08:37:18;96894.00;;;21.67;68.31
45731;BME280;31440;48.584;13.460;2023-05-07T08:40:26;96905.06;;;21.83;73.87
45731;BME280;31440;48.584;13.460;2023-05-07T08:43:37;96890.00;;;23.13;67.78
45731;BME280;31440;48.584;13.460;2023-05-07T08:46:45;96904.94;;;22.61;59.46
45731;BME280;31440;48.584;13.460;2023-05-07T08:49:54;96896.34;;;24.13;62.62
45731;BME280;31440;48.584;13.460;2023-05-07T08:53:00;96895.19;;;23.35;58.08
45731;BME280;31440;48.584;13.460;2023-05-07T08:56:05;96895.25;;;23.85;62.29
45731;BME280;31440;48.584;13.460;2023-05-07T08:59:11;96887.38;;;23.34;57.34
45731;BME280;31440;48.584;13.460;2023-05-07T09:02:16;96897.56;;;24.09;63.67
45731;BME280;31440;48.584;13.460;2023-05-07T09:05:23;96894.31;;;24.36;60.38
45731;BME280;31440;48.584;13.460;2023-05-07T09:08:28;96899.16;;;23.81;57.78
45731;BME280;31440;48.584;13.460;2023-05-07T09:11:36;96899.91;;;23.32;60.48
45731;BME280;31440;48.584;13.460;2023-05-07T09:14:41;96905.22;;;23.20;59.77
45731;BME280;31440;48.584;13.460;2023-05-07T09:17:46;96881.91;;;22.73;57.96
45731;BME280;31440;48.584;13.460;2023-05-07T09:23:58;96892.53;;;23.66;52.57
45731;BME280;31440;48.584;13.460;2023-05-07T09:30:19;96892.25;;;24.58;51.83
45731;BME280;31440;48.584;13.460;2023-05-07T09:33:26;96892.41;;;23.98;55.58
45731;BME280;31440;48.584;13.460;2023-05-07T09:36:32;96890.13;;;23.53;54.13
45731;BME280;31440;48.584;13.460;2023-05-07T09:39:40;96884.38;;;24.47;52.16
45731;BME280;31440;48.584;13.460;2023-05-07T09:42:46;96879.97;;;24.96;50.47
45731;BME280;31440;48.584;13.460;2023-05-07T09:45:52;96877.69;;;25.01;53.15
45731;BME280;31440;48.584;13.460;2023-05-07T09:49:01;96882.31;;;24.99;49.53
45731;BME280;31440;48.584;13.460;2023-05-07T09:52:10;96872.97;;;24.85;47.45
45731;BME280;31440;48.584;13.460;2023-05-07T09:55:21;96874.53;;;26.81;48.13
45731;BME280;31440;48.584;13.460;2023-05-07T09:58:27;96886.53;;;25.68;48.63
45731;BME280;31440;48.584;13.460;2023-05-07T10:01:32;96878.72;;;24.71;45.33
45731;BME280;31440;48.584;13.460;2023-05-07T10:04:40;96869.91;;;25.56;48.06
45731;BME280;31440;48.584;13.460;2023-05-07T10:07:46;96853.16;;;26.38;46.38
45731;BME280;31440;48.584;13.460;2023-05-07T10:10:51;96870.66;;;26.76;49.86
45731;BME280;31440;48.584;13.460;2023-05-07T10:14:02;96855.28;;;25.79;45.15
45731;BME280;31440;48.584;13.460;2023-05-07T10:17:09;96859.31;;;26.11;46.70
45731;BME280;31440;48.584;13.460;2023-05-07T10:20:19;96855.03;;;26.45;47.41
45731;BME280;31440;48.584;13.460;2023-05-07T10:23:25;96855.97;;;27.15;49.34
45731;BME280;31440;48.584;13.460;2023-05-07T10:26:35;96831.44;;;26.15;46.31
45731;BME280;31440;48.584;13.460;2023-05-07T10:33:15;96848.41;;;25.86;45.11
45731;BME280;31440;48.584;13.460;2023-05-07T10:36:22;96842.66;;;26.54;46.27
45731;BME280;31440;48.584;13.460;2023-05-07T10:39:30;96838.47;;;27.13;43.20
45731;BME280;31440;48.584;13.460;2023-05-07T10:42:35;96853.94;;;25.66;45.24
45731;BME280;31440;48.584;13.460;2023-05-07T10:45:40;96845.41;;;27.23;43.86
45731;BME280;31440;48.584;13.460;2023-05-07T10:52:15;96837.97;;;27.35;42.60
45731;BME280;31440;48.584;13.460;2023-05-07T10:59:34;96833.38;;;28.13;39.71
45731;BME280;31440;48.584;13.460;2023-05-07T11:06:16;96840.47;;;28.63;38.12
45731;BME280;31440;48.584;13.460;2023-05-07T11:13:11;96836.50;;;29.08;39.22
45731;BME280;31440;48.584;13.460;2023-05-07T11:16:24;96835.16;;;28.71;39.73
45731;BME280;31440;48.584;13.460;2023-05-07T11:19:55;96835.44;;;27.85;39.14
45731;BME280;31440;48.584;13.460;2023-05-07T11:26:57;96835.28;;;28.45;38.59
45731;BME280;31440;48.584;13.460;2023-05-07T11:30:04;96830.78;;;28.46;41.12
45731;BME280;31440;48.584;13.460;2023-05-07T11:33:09;96820.31;;;29.01;38.08
45731;BME280;31440;48.584;13.460;2023-05-07T11:36:15;96825.81;;;29.24;39.39
45731;BME280;31440;48.584;13.460;2023-05-07T11:39:31;96827.88;;;29.53;36.62
45731;BME280;31440;48.584;13.460;2023-05-07T11:42:38;96829.56;;;29.46;38.05
45731;BME280;31440;48.584;13.460;2023-05-07T11:45:44;96828.22;;;29.50;38.33
45731;BME280;31440;48.584;13.460;2023-05-07T11:48:49;96827.94;;;29.45;36.86
45731;BME280;31440;48.584;13.460;2023-05-07T11:51:53;96818.19;;;30.61;34.65
45731;BME280;31440;48.584;13.460;2023-05-07T11:54:59;96829.72;;;29.52;37.41
45731;BME280;31440;48.584;13.460;2023-05-07T11:58:04;96826.75;;;29.55;37.32
45731;BME280;31440;48.584;13.460;2023-05-07T12:01:10;96827.63;;;29.87;40.03
45731;BME280;31440;48.584;13.460;2023-05-07T12:04:19;96824.78;;;29.25;35.21
45731;BME280;31440;48.584;13.460;2023-05-07T12:07:25;96823.94;;;27.25;39.74
45731;BME280;31440;48.584;13.460;2023-05-07T12:10:29;96832.53;;;26.93;40.10
45731;BME280;31440;48.584;13.460;2023-05-07T12:13:34;96824.25;;;26.60;39.91
45731;BME280;31440;48.584;13.460;2023-05-07T12:16:40;96827.91;;;25.69;40.45
45731;BME280;31440;48.584;13.460;2023-05-07T12:19:45;96841.09;;;25.61;41.00
45731;BME280;31440;48.584;13.460;2023-05-07T12:22:49;96835.91;;;24.26;44.39
45731;BME280;31440;48.584;13.460;2023-05-07T12:29:02;96836.06;;;23.14;48.30
45731;BME280;31440;48.584;13.460;2023-05-07T12:32:13;96836.41;;;23.00;52.76
45731;BME280;31440;48.584;13.460;2023-05-07T12:35:28;96841.59;;;22.05;58.23
45731;BME280;31440;48.584;13.460;2023-05-07T12:38:39;96841.06;;;22.23;58.70
45731;BME280;31440;48.584;13.460;2023-05-07T12:41:55;96846.53;;;21.99;56.91
45731;BME280;31440;48.584;13.460;2023-05-07T12:45:15;96819.44;;;22.81;61.87
45731;BME280;31440;48.584;13.460;2023-05-07T12:48:22;96840.66;;;22.70;60.01
45731;BME280;31440;48.584;13.460;2023-05-07T12:51:27;96829.16;;;22.60;61.17
45731;BME280;31440;48.584;13.460;2023-05-07T12:54:34;96829.16;;;22.60;61.58
45731;BME280;31440;48.584;13.460;2023-05-07T12:57:40;96832.19;;;22.12;58.52
45731;BME280;31440;48.584;13.460;2023-05-07T13:03:51;96829.88;;;22.51;56.19
45731;BME280;31440;48.584;13.460;2023-05-07T13:06:56;96829.81;;;22.41;58.19
45731;BME280;31440;48.584;13.460;2023-05-07T13:10:00;96812.00;;;22.96;55.86
45731;BME280;31440;48.584;13.460;2023-05-07T13:13:05;96816.03;;;23.21;53.25
45731;BME280;31440;48.584;13.460;2023-05-07T13:16:10;96809.63;;;23.44;50.06
45731;BME280;31440;48.584;13.460;2023-05-07T13:19:16;96813.91;;;23.36;50.54
45731;BME280;31440;48.584;13.460;2023-05-07T13:22:21;96805.00;;;23.86;49.50
45731;BME280;31440;48.584;13.460;2023-05-07T13:25:26;96794.34;;;24.55;48.71
45731;BME280;31440;48.584;13.460;2023-05-07T13:28:30;96808.94;;;25.08;46.45
45731;BME280;31440;48.584;13.460;2023-05-07T13:31:35;96793.34;;;24.27;47.98
45731;BME280;31440;48.584;13.460;2023-05-07T13:34:40;96798.00;;;25.20;46.32
45731;BME280;31440;48.584;13.460;2023-05-07T13:37:44;96799.34;;;24.87;43.60
45731;BME280;31440;48.584;13.460;2023-05-07T13:40:49;96795.81;;;25.80;42.91
45731;BME280;31440;48.584;13.460;2023-05-07T13:43:54;96802.00;;;24.49;44.23
45731;BME280;31440;48.584;13.460;2023-05-07T13:46:58;96802.84;;;24.30;45.29
45731;BME280;31440;48.584;13.460;2023-05-07T13:50:03;96793.69;;;23.84;44.77
45731;BME280;31440;48.584;13.460;2023-05-07T13:53:08;96804.25;;;24.73;43.85
45731;BME280;31440;48.584;13.460;2023-05-07T13:56:13;96801.53;;;25.11;44.82
45731;BME280;31440;48.584;13.460;2023-05-07T13:59:18;96799.66;;;24.65;43.85
45731;BME280;31440;48.584;13.460;2023-05-07T14:02:23;96799.75;;;24.44;43.49
45731;BME280;31440;48.584;13.460;2023-05-07T14:05:28;96797.25;;;24.33;45.40
45731;BME280;31440;48.584;13.460;2023-05-07T14:08:32;96797.53;;;25.35;43.75
45731;BME280;31440;48.584;13.460;2023-05-07T14:11:37;96799.63;;;26.41;43.28
45731;BME280;31440;48.584;13.460;2023-05-07T14:14:41;96795.72;;;26.53;42.71
45731;BME280;31440;48.584;13.460;2023-05-07T14:17:48;96760.75;;;27.51;39.70
45731;BME280;31440;48.584;13.460;2023-05-07T14:20:52;96789.00;;;27.70;39.65
45731;BME280;31440;48.584;13.460;2023-05-07T14:23:57;96793.91;;;26.97;38.21
45731;BME280;31440;48.584;13.460;2023-05-07T14:27:01;96802.63;;;27.25;38.05
45731;BME280;31440;48.584;13.460;2023-05-07T14:30:06;96791.94;;;26.38;39.49
45731;BME280;31440;48.584;13.460;2023-05-07T14:33:11;96787.53;;;26.64;38.65
45731;BME280;31440;48.584;13.460;2023-05-07T14:36:19;96775.88;;;26.29;40.35
45731;BME280;31440;48.584;13.460;2023-05-07T14:39:25;96797.31;;;26.46;37.72
45731;BME280;31440;48.584;13.460;2023-05-07T14:42:30;96798.81;;;26.58;38.60
45731;BME280;31440;48.584;13.460;2023-05-07T14:45:34;96794.06;;;26.52;37.56
45731;BME280;31440;48.584;13.460;2023-05-07T14:48:39;96796.56;;;26.36;37.00
45731;BME280;31440;48.584;13.460;2023-05-07T14:54:50;96799.59;;;25.78;40.58
45731;BME280;31440;48.584;13.460;2023-05-07T14:57:55;96795.50;;;25.56;40.90
45731;BME280;31440;48.584;13.460;2023-05-07T15:01:00;96789.19;;;25.57;36.89
45731;BME280;31440;48.584;13.460;2023-05-07T15:04:05;96793.09;;;25.62;39.41
45731;BME280;31440;48.584;13.460;2023-05-07T15:07:10;96775.00;;;25.93;38.27
45731;BME280;31440;48.584;13.460;2023-05-07T15:10:15;96800.88;;;26.01;35.95
45731;BME280;31440;48.584;13.460;2023-05-07T15:13:20;96800.06;;;25.26;39.86
45731;BME280;31440;48.584;13.460;2023-05-07T15:16:24;96801.81;;;24.99;40.31
45731;BME280;31440;48.584;13.460;2023-05-07T15:19:29;96806.06;;;24.53;39.79
45731;BME280;31440;48.584;13.460;2023-05-07T15:22:35;96800.72;;;24.91;39.82
45731;BME280;31440;48.584;13.460;2023-05-07T15:25:41;96802.66;;;25.09;41.17
45731;BME280;31440;48.584;13.460;2023-05-07T15:28:46;96804.81;;;24.76;40.14
45731;BME280;31440;48.584;13.460;2023-05-07T15:31:50;96799.06;;;24.90;40.59
45731;BME280;31440;48.584;13.460;2023-05-07T15:38:02;96802.06;;;23.80;42.08
45731;BME280;31440;48.584;13.460;2023-05-07T15:41:07;96812.47;;;24.02;41.83
45731;BME280;31440;48.584;13.460;2023-05-07T15:44:11;96812.91;;;23.77;42.17
45731;BME280;31440;48.584;13.460;2023-05-07T15:47:16;96806.44;;;24.10;41.05
45731;BME280;31440;48.584;13.460;2023-05-07T15:50:21;96820.84;;;23.37;43.15
45731;BME280;31440;48.584;13.460;2023-05-07T15:53:25;96816.63;;;23.95;41.90
45731;BME280;31440;48.584;13.460;2023-05-07T15:56:32;96783.06;;;23.25;42.71
45731;BME280;31440;48.584;13.460;2023-05-07T15:59:37;96816.13;;;23.31;42.86
45731;BME280;31440;48.584;13.460;2023-05-07T16:02:41;96820.78;;;22.97;43.42
45731;BME280;31440;48.584;13.460;2023-05-07T16:05:46;96822.28;;;23.41;44.00
45731;BME280;31440;48.584;13.460;2023-05-07T16:08:51;96827.38;;;22.81;44.30
45731;BME280;31440;48.584;13.460;2023-05-07T16:11:55;96831.03;;;22.37;46.12
45731;BME280;31440;48.584;13.460;2023-05-07T16:15:02;96805.75;;;22.12;46.18
45731;BME280;31440;48.584;13.460;2023-05-07T16:18:06;96835.72;;;22.66;45.45
45731;BME280;31440;48.584;13.460;2023-05-07T16:21:11;96827.47;;;22.27;46.01
45731;BME280;31440;48.584;13.460;2023-05-07T16:24:16;96827.22;;;22.30;45.89
45731;BME280;31440;48.584;13.460;2023-05-07T16:27:20;96832.97;;;22.03;47.15
45731;BME280;31440;48.584;13.460;2023-05-07T16:30:25;96836.84;;;21.88;48.03
45731;BME280;31440;48.584;13.460;2023-05-07T16:33:30;96840.69;;;21.73;47.57
45731;BME280;31440;48.584;13.460;2023-05-07T16:39:40;96839.59;;;21.42;48.85
45731;BME280;31440;48.584;13.460;2023-05-07T16:42:44;96838.69;;;20.97;50.64
45731;BME280;31440;48.584;13.460;2023-05-07T16:45:49;96844.63;;;21.23;49.89
45731;BME280;31440;48.584;13.460;2023-05-07T16:48:54;96843.38;;;20.93;50.53
45731;BME280;31440;48.584;13.460;2023-05-07T16:51:58;96846.75;;;20.60;51.45
45731;BME280;31440;48.584;13.460;2023-05-07T16:55:03;96847.50;;;20.73;52.58
45731;BME280;31440;48.584;13.460;2023-05-07T16:58:10;96846.34;;;20.42;54.99
45731;BME280;31440;48.584;13.460;2023-05-07T17:01:15;96846.03;;;20.10;54.19
45731;BME280;31440;48.584;13.460;2023-05-07T17:04:22;96851.69;;;20.30;54.63
45731;BME280;31440;48.584;13.460;2023-05-07T17:07:26;96848.31;;;20.15;55.51
45731;BME280;31440;48.584;13.460;2023-05-07T17:10:31;96854.44;;;20.15;56.93
45731;BME280;31440;48.584;13.460;2023-05-07T17:13:35;96859.97;;;19.76;57.15
45731;BME280;31440;48.584;13.460;2023-05-07T17:16:43;96836.63;;;19.46;58.44
45731;BME280;31440;48.584;13.460;2023-05-07T17:19:47;96875.22;;;20.20;57.43
45731;BME280;31440;48.584;13.460;2023-05-07T17:22:52;96876.06;;;20.44;55.73